Archival Weather

Sydney Intl

Sydney, Australia (YSSY)

Report from: Saturday, March 18, 2023 7:30 PM AEDT
Current time: Saturday, June 22, 2024 8:43 AM AEST

Current weather – Weather history – Daily summaries
Weather forecast

Temperature26.0°C (78.8°F)
Dew point22.0°C (71.6°F)
Winds 17 kts (8.7 m/s, 19.6 mph) North-Northeast (30°)
Visibility6.2 mi. (10 km)
Clouds Sky clear
Altimeter30.00 in.Hg (1016 mB)
Relative humidity79 %
Density altitude1,534 ft. (468 m)
Remarks Fully automated report
No clouds detected
Flight conditions Visual Meteorological Conditions
Raw dataYSSY 180830Z AUTO 03017KT 9999 // NCD 26/22 Q1016 RF00.0/000.0
An error has occurred. This application may no longer respond until reloaded. Reload 🗙